Concord, Illinois
Current Conditions -  °F | °C
As of 10:15 PM on Tuesday 27 Jan 2015 (Local Time) from KIJX Reporting Station
Overcast Overcast  
Wind Chill: 32°   Ceiling: 1300
Heat Index: 32°   Visibility: 7mi
Dew Point: 28°   Wind: 3mph
Humidity: 85%   Direction: 120°ESE
Pressure: 30.24"   Gusts: NA
Location:  39.82°N, 90.37°W
Report Text: KIJX 280415Z AUTO 12003KT 7SM OVC013 00/M02 A3024 RMK AO2 T00011021
Loading
Personal Weather Stations






























Interactive Weather Map New forecast layout! Learn more

10-Day Weather Forecast

Advertisements
Track Severe Weather on mobile